sensor_id;sensor_type;location;lat;lon;timestamp;P1;durP1;ratioP1;P2;durP2;ratioP2
928;SDS011;451;47.988;7.842;2023-10-19T00:06:36;19.67;;;16.20;;
928;SDS011;451;47.988;7.842;2023-10-19T00:15:43;20.03;;;17.60;;
928;SDS011;451;47.988;7.842;2023-10-19T00:24:50;19.47;;;17.47;;
928;SDS011;451;47.988;7.842;2023-10-19T00:33:54;25.37;;;17.93;;
928;SDS011;451;47.988;7.842;2023-10-19T00:42:58;19.50;;;16.80;;
928;SDS011;451;47.988;7.842;2023-10-19T00:52:04;18.13;;;16.23;;
928;SDS011;451;47.988;7.842;2023-10-19T01:01:15;19.07;;;17.13;;
928;SDS011;451;47.988;7.842;2023-10-19T01:10:21;18.53;;;16.50;;
928;SDS011;451;47.988;7.842;2023-10-19T01:19:25;19.13;;;16.87;;
928;SDS011;451;47.988;7.842;2023-10-19T01:28:31;20.13;;;16.73;;
928;SDS011;451;47.988;7.842;2023-10-19T01:37:45;16.00;;;14.30;;
928;SDS011;451;47.988;7.842;2023-10-19T01:46:49;18.17;;;14.23;;
928;SDS011;451;47.988;7.842;2023-10-19T01:55:53;13.10;;;11.80;;
928;SDS011;451;47.988;7.842;2023-10-19T02:05:01;12.10;;;8.67;;
928;SDS011;451;47.988;7.842;2023-10-19T02:14:10;9.77;;;8.37;;
928;SDS011;451;47.988;7.842;2023-10-19T02:23:18;11.37;;;10.10;;
928;SDS011;451;47.988;7.842;2023-10-19T02:32:23;12.60;;;11.30;;
928;SDS011;451;47.988;7.842;2023-10-19T02:41:28;12.93;;;11.23;;
928;SDS011;451;47.988;7.842;2023-10-19T02:50:32;12.97;;;11.20;;
928;SDS011;451;47.988;7.842;2023-10-19T02:59:38;14.67;;;11.93;;
928;SDS011;451;47.988;7.842;2023-10-19T03:08:41;10.93;;;9.60;;
928;SDS011;451;47.988;7.842;2023-10-19T03:17:49;12.73;;;10.53;;
928;SDS011;451;47.988;7.842;2023-10-19T03:26:52;10.53;;;9.50;;
928;SDS011;451;47.988;7.842;2023-10-19T03:35:57;10.70;;;9.50;;
928;SDS011;451;47.988;7.842;2023-10-19T03:45:01;8.07;;;7.43;;
928;SDS011;451;47.988;7.842;2023-10-19T03:54:11;7.10;;;6.40;;
928;SDS011;451;47.988;7.842;2023-10-19T04:03:23;8.17;;;6.87;;
928;SDS011;451;47.988;7.842;2023-10-19T04:12:27;8.77;;;7.97;;
928;SDS011;451;47.988;7.842;2023-10-19T04:21:34;5.20;;;4.80;;
928;SDS011;451;47.988;7.842;2023-10-19T04:30:41;5.43;;;5.00;;
928;SDS011;451;47.988;7.842;2023-10-19T04:39:45;7.03;;;4.30;;
928;SDS011;451;47.988;7.842;2023-10-19T04:48:49;5.13;;;4.63;;
928;SDS011;451;47.988;7.842;2023-10-19T04:57:53;4.83;;;4.33;;
928;SDS011;451;47.988;7.842;2023-10-19T05:06:58;10.43;;;7.30;;
928;SDS011;451;47.988;7.842;2023-10-19T05:16:03;7.07;;;3.80;;
928;SDS011;451;47.988;7.842;2023-10-19T05:25:08;5.20;;;4.70;;
928;SDS011;451;47.988;7.842;2023-10-19T05:34:12;4.30;;;3.90;;
928;SDS011;451;47.988;7.842;2023-10-19T05:43:19;9.10;;;7.03;;
928;SDS011;451;47.988;7.842;2023-10-19T05:52:22;5.43;;;5.00;;
928;SDS011;451;47.988;7.842;2023-10-19T06:01:27;5.33;;;4.10;;
928;SDS011;451;47.988;7.842;2023-10-19T06:10:31;4.10;;;3.80;;
928;SDS011;451;47.988;7.842;2023-10-19T06:19:36;5.27;;;4.77;;
928;SDS011;451;47.988;7.842;2023-10-19T06:28:40;4.07;;;3.67;;
928;SDS011;451;47.988;7.842;2023-10-19T06:37:44;4.80;;;3.80;;
928;SDS011;451;47.988;7.842;2023-10-19T06:46:48;4.33;;;4.00;;
928;SDS011;451;47.988;7.842;2023-10-19T06:55:52;3.70;;;3.40;;
928;SDS011;451;47.988;7.842;2023-10-19T07:04:56;3.47;;;3.17;;
928;SDS011;451;47.988;7.842;2023-10-19T07:14:02;10.40;;;7.87;;
928;SDS011;451;47.988;7.842;2023-10-19T07:23:09;13.67;;;11.17;;
928;SDS011;451;47.988;7.842;2023-10-19T07:32:21;14.80;;;10.90;;
928;SDS011;451;47.988;7.842;2023-10-19T07:41:24;13.83;;;9.50;;
928;SDS011;451;47.988;7.842;2023-10-19T07:50:29;10.83;;;7.10;;
928;SDS011;451;47.988;7.842;2023-10-19T07:59:32;7.63;;;5.00;;
928;SDS011;451;47.988;7.842;2023-10-19T08:08:37;8.07;;;7.37;;
928;SDS011;451;47.988;7.842;2023-10-19T08:17:40;6.17;;;5.67;;
928;SDS011;451;47.988;7.842;2023-10-19T08:26:47;5.27;;;4.20;;
928;SDS011;451;47.988;7.842;2023-10-19T08:35:50;6.00;;;4.67;;
928;SDS011;451;47.988;7.842;2023-10-19T08:44:55;7.10;;;3.90;;
928;SDS011;451;47.988;7.842;2023-10-19T08:53:58;5.20;;;3.80;;
928;SDS011;451;47.988;7.842;2023-10-19T09:03:03;3.50;;;3.20;;
928;SDS011;451;47.988;7.842;2023-10-19T09:12:07;4.03;;;3.73;;
928;SDS011;451;47.988;7.842;2023-10-19T09:21:14;3.83;;;3.53;;
928;SDS011;451;47.988;7.842;2023-10-19T09:30:26;5.70;;;4.33;;
928;SDS011;451;47.988;7.842;2023-10-19T09:39:33;3.67;;;3.40;;
928;SDS011;451;47.988;7.842;2023-10-19T09:48:39;3.10;;;2.90;;
928;SDS011;451;47.988;7.842;2023-10-19T09:57:47;3.83;;;3.63;;
928;SDS011;451;47.988;7.842;2023-10-19T10:06:57;3.10;;;2.90;;
928;SDS011;451;47.988;7.842;2023-10-19T10:16:03;2.07;;;1.97;;
928;SDS011;451;47.988;7.842;2023-10-19T10:25:07;2.00;;;1.90;;
928;SDS011;451;47.988;7.842;2023-10-19T10:34:16;2.83;;;2.63;;
928;SDS011;451;47.988;7.842;2023-10-19T10:43:49;3.50;;;3.20;;
928;SDS011;451;47.988;7.842;2023-10-19T10:52:55;2.53;;;2.33;;
928;SDS011;451;47.988;7.842;2023-10-19T11:01:59;4.77;;;4.30;;
928;SDS011;451;47.988;7.842;2023-10-19T11:11:05;2.47;;;2.27;;
928;SDS011;451;47.988;7.842;2023-10-19T11:20:09;3.23;;;2.93;;
928;SDS011;451;47.988;7.842;2023-10-19T11:29:25;2.83;;;2.63;;
928;SDS011;451;47.988;7.842;2023-10-19T11:38:28;3.67;;;3.47;;
928;SDS011;451;47.988;7.842;2023-10-19T11:47:33;4.20;;;3.40;;
928;SDS011;451;47.988;7.842;2023-10-19T11:56:37;3.87;;;3.67;;
928;SDS011;451;47.988;7.842;2023-10-19T12:05:41;2.30;;;2.20;;
928;SDS011;451;47.988;7.842;2023-10-19T12:14:45;1.70;;;1.50;;
928;SDS011;451;47.988;7.842;2023-10-19T12:23:49;1.93;;;1.83;;
928;SDS011;451;47.988;7.842;2023-10-19T12:32:56;1.97;;;1.50;;
928;SDS011;451;47.988;7.842;2023-10-19T12:42:00;1.27;;;1.23;;
928;SDS011;451;47.988;7.842;2023-10-19T12:51:05;3.47;;;2.07;;
928;SDS011;451;47.988;7.842;2023-10-19T13:00:12;1.30;;;1.20;;
928;SDS011;451;47.988;7.842;2023-10-19T13:09:30;1.40;;;1.30;;
928;SDS011;451;47.988;7.842;2023-10-19T13:18:35;3.27;;;1.57;;
928;SDS011;451;47.988;7.842;2023-10-19T13:27:41;1.50;;;1.40;;
928;SDS011;451;47.988;7.842;2023-10-19T13:36:47;2.13;;;1.60;;
928;SDS011;451;47.988;7.842;2023-10-19T13:45:51;2.07;;;1.80;;
928;SDS011;451;47.988;7.842;2023-10-19T13:54:56;2.87;;;1.63;;
928;SDS011;451;47.988;7.842;2023-10-19T14:04:00;2.23;;;2.10;;
928;SDS011;451;47.988;7.842;2023-10-19T14:13:04;2.30;;;2.17;;
928;SDS011;451;47.988;7.842;2023-10-19T14:22:08;2.20;;;2.10;;
928;SDS011;451;47.988;7.842;2023-10-19T14:31:13;2.60;;;2.40;;
928;SDS011;451;47.988;7.842;2023-10-19T14:40:19;2.87;;;2.67;;
928;SDS011;451;47.988;7.842;2023-10-19T14:49:24;2.83;;;2.63;;
928;SDS011;451;47.988;7.842;2023-10-19T14:58:27;3.83;;;2.67;;
928;SDS011;451;47.988;7.842;2023-10-19T15:07:34;3.47;;;3.27;;
928;SDS011;451;47.988;7.842;2023-10-19T15:16:39;3.10;;;2.90;;
928;SDS011;451;47.988;7.842;2023-10-19T15:25:48;3.93;;;3.30;;
928;SDS011;451;47.988;7.842;2023-10-19T15:34:51;9.93;;;8.30;;
928;SDS011;451;47.988;7.842;2023-10-19T15:43:59;3.63;;;3.43;;
928;SDS011;451;47.988;7.842;2023-10-19T15:53:05;4.63;;;4.30;;
928;SDS011;451;47.988;7.842;2023-10-19T16:02:11;4.53;;;4.13;;
928;SDS011;451;47.988;7.842;2023-10-19T16:11:15;5.20;;;4.80;;
928;SDS011;451;47.988;7.842;2023-10-19T16:20:20;4.50;;;4.10;;
928;SDS011;451;47.988;7.842;2023-10-19T16:29:24;4.30;;;4.00;;
928;SDS011;451;47.988;7.842;2023-10-19T16:38:30;6.20;;;4.50;;
928;SDS011;451;47.988;7.842;2023-10-19T16:47:35;6.43;;;5.63;;
928;SDS011;451;47.988;7.842;2023-10-19T16:56:41;5.57;;;5.07;;
928;SDS011;451;47.988;7.842;2023-10-19T17:05:48;7.40;;;6.63;;
928;SDS011;451;47.988;7.842;2023-10-19T17:14:52;6.80;;;6.20;;
928;SDS011;451;47.988;7.842;2023-10-19T17:23:56;6.23;;;5.73;;
928;SDS011;451;47.988;7.842;2023-10-19T17:33:04;7.20;;;6.60;;
928;SDS011;451;47.988;7.842;2023-10-19T17:42:12;6.57;;;5.97;;
928;SDS011;451;47.988;7.842;2023-10-19T17:51:17;6.93;;;6.43;;
928;SDS011;451;47.988;7.842;2023-10-19T18:00:22;6.80;;;6.20;;
928;SDS011;451;47.988;7.842;2023-10-19T18:09:30;6.30;;;5.70;;
928;SDS011;451;47.988;7.842;2023-10-19T18:18:34;9.30;;;8.30;;
928;SDS011;451;47.988;7.842;2023-10-19T18:27:40;6.73;;;5.77;;
928;SDS011;451;47.988;7.842;2023-10-19T18:36:49;8.97;;;7.27;;
928;SDS011;451;47.988;7.842;2023-10-19T18:45:57;16.33;;;11.83;;
928;SDS011;451;47.988;7.842;2023-10-19T18:55:02;27.63;;;14.00;;
928;SDS011;451;47.988;7.842;2023-10-19T19:04:20;7.20;;;5.70;;
928;SDS011;451;47.988;7.842;2023-10-19T19:13:24;3.73;;;3.50;;
928;SDS011;451;47.988;7.842;2023-10-19T19:22:29;3.60;;;3.30;;
928;SDS011;451;47.988;7.842;2023-10-19T19:31:35;2.80;;;2.60;;
928;SDS011;451;47.988;7.842;2023-10-19T19:40:47;6.23;;;5.27;;
928;SDS011;451;47.988;7.842;2023-10-19T19:49:51;6.83;;;6.20;;
928;SDS011;451;47.988;7.842;2023-10-19T19:58:56;8.97;;;7.80;;
928;SDS011;451;47.988;7.842;2023-10-19T20:08:01;9.50;;;8.70;;
928;SDS011;451;47.988;7.842;2023-10-19T20:17:06;11.83;;;10.57;;
928;SDS011;451;47.988;7.842;2023-10-19T20:26:09;12.37;;;11.17;;
928;SDS011;451;47.988;7.842;2023-10-19T20:35:17;14.13;;;11.77;;
928;SDS011;451;47.988;7.842;2023-10-19T20:44:22;14.03;;;12.23;;
928;SDS011;451;47.988;7.842;2023-10-19T20:53:27;14.97;;;13.50;;
928;SDS011;451;47.988;7.842;2023-10-19T21:02:31;14.27;;;12.63;;
928;SDS011;451;47.988;7.842;2023-10-19T21:11:36;15.00;;;13.43;;
928;SDS011;451;47.988;7.842;2023-10-19T21:20:40;18.50;;;14.83;;
928;SDS011;451;47.988;7.842;2023-10-19T21:29:44;17.20;;;15.40;;
928;SDS011;451;47.988;7.842;2023-10-19T21:38:51;21.07;;;16.23;;
928;SDS011;451;47.988;7.842;2023-10-19T21:47:55;18.47;;;16.50;;
928;SDS011;451;47.988;7.842;2023-10-19T21:56:58;19.43;;;16.40;;
928;SDS011;451;47.988;7.842;2023-10-19T22:06:03;21.30;;;16.70;;
928;SDS011;451;47.988;7.842;2023-10-19T22:15:07;22.60;;;17.40;;
928;SDS011;451;47.988;7.842;2023-10-19T22:24:11;18.97;;;16.70;;
928;SDS011;451;47.988;7.842;2023-10-19T22:33:14;19.30;;;13.83;;
928;SDS011;451;47.988;7.842;2023-10-19T22:42:19;15.43;;;12.73;;
928;SDS011;451;47.988;7.842;2023-10-19T22:51:22;19.03;;;14.10;;
928;SDS011;451;47.988;7.842;2023-10-19T23:00:27;15.40;;;12.83;;
928;SDS011;451;47.988;7.842;2023-10-19T23:09:31;24.27;;;15.80;;
928;SDS011;451;47.988;7.842;2023-10-19T23:18:37;18.73;;;15.30;;
928;SDS011;451;47.988;7.842;2023-10-19T23:27:40;20.60;;;14.97;;
928;SDS011;451;47.988;7.842;2023-10-19T23:36:45;19.80;;;16.27;;
928;SDS011;451;47.988;7.842;2023-10-19T23:45:48;21.43;;;15.87;;
928;SDS011;451;47.988;7.842;2023-10-19T23:54:53;19.53;;;16.27;;
